createdAt,value
2019-02-12T07:15:46.142Z,89.20
2019-02-12T07:21:29.183Z,87.50
2019-02-12T07:27:28.319Z,85.80
2019-02-12T07:32:59.266Z,85.70
2019-02-12T07:38:16.785Z,84.50
2019-02-12T07:43:59.012Z,82.90
2019-02-12T07:49:41.096Z,81.10
2019-02-12T07:55:13.244Z,79.60
2019-02-12T08:00:42.794Z,79.20
2019-02-12T08:06:23.590Z,78.70
2019-02-12T08:11:52.908Z,77.10
2019-02-12T08:17:35.971Z,76.20
2019-02-12T08:23:24.541Z,75.60
2019-02-12T08:29:12.531Z,74.60
2019-02-12T08:35:12.488Z,74.80
2019-02-12T08:40:49.244Z,75.40
2019-02-12T08:46:26.777Z,74.90
2019-02-12T08:51:52.962Z,72.00
2019-02-12T08:57:51.582Z,72.20
2019-02-12T09:03:25.394Z,70.40
2019-02-12T09:09:04.387Z,69.80
2019-02-12T09:14:22.874Z,69.20
2019-02-12T09:20:02.076Z,69.00
2019-02-12T09:25:14.175Z,68.00
2019-02-12T09:30:46.831Z,67.00
2019-02-12T09:36:25.541Z,64.60
2019-02-12T09:42:09.842Z,64.30
2019-02-12T09:47:50.432Z,63.90
2019-02-12T09:53:39.624Z,62.80
2019-02-12T09:59:12.926Z,63.10
2019-02-12T10:04:40.747Z,60.90
2019-02-12T10:10:10.455Z,60.60
2019-02-12T10:16:01.336Z,60.30
2019-02-12T10:21:45.147Z,59.80
2019-02-12T10:27:19.602Z,59.80
2019-02-12T10:32:24.116Z,59.00
2019-02-12T10:37:29.260Z,58.30
2019-02-12T10:42:35.357Z,58.80
2019-02-12T10:47:40.493Z,58.40
2019-02-12T10:52:47.658Z,58.60
2019-02-12T10:57:52.420Z,58.90
2019-02-12T11:02:58.295Z,57.80
2019-02-12T11:08:03.840Z,58.20
2019-02-12T11:13:09.084Z,58.40
2019-02-12T11:18:13.991Z,58.50
2019-02-12T11:23:19.408Z,58.00
2019-02-12T11:28:24.964Z,57.10
2019-02-12T11:33:30.216Z,56.60
2019-02-12T11:38:35.668Z,57.40
2019-02-12T11:43:41.316Z,56.40
2019-02-12T11:48:46.535Z,55.70
2019-02-12T11:53:51.860Z,55.80
2019-02-12T11:58:57.041Z,55.80
2019-02-12T12:04:02.317Z,56.50
2019-02-12T12:09:07.332Z,55.00
2019-02-12T12:14:12.801Z,55.60
2019-02-12T12:19:18.228Z,54.90
2019-02-12T12:24:23.653Z,54.70
2019-02-12T12:29:28.905Z,54.80
2019-02-12T12:34:34.642Z,53.40
2019-02-12T12:39:40.432Z,53.70
2019-02-12T12:44:47.021Z,52.80
2019-02-12T12:49:52.788Z,53.30
2019-02-12T12:54:59.831Z,53.40
2019-02-12T13:00:08.026Z,52.40
2019-02-12T13:05:15.451Z,51.60
2019-02-12T13:10:20.003Z,52.30
2019-02-12T13:15:24.352Z,50.90
2019-02-12T13:20:28.509Z,50.60
2019-02-12T13:25:32.612Z,50.70
2019-02-12T13:30:36.801Z,51.30
2019-02-12T13:35:40.974Z,51.00
2019-02-12T13:40:45.622Z,50.50
2019-02-12T13:45:50.041Z,50.20
2019-02-12T13:50:54.286Z,50.80
2019-02-12T13:55:57.788Z,49.60
2019-02-12T14:01:02.079Z,50.90
2019-02-12T14:06:06.629Z,48.10
2019-02-12T14:11:11.238Z,46.50
2019-02-12T14:16:15.779Z,47.30
2019-02-12T14:21:21.930Z,47.60
2019-02-12T14:26:26.268Z,47.80
2019-02-12T14:31:31.106Z,45.40
2019-02-12T14:36:34.840Z,45.00
2019-02-12T14:41:39.360Z,45.60
2019-02-12T14:46:43.438Z,46.40
2019-02-12T14:51:47.986Z,41.70
2019-02-12T14:56:52.402Z,42.70
2019-02-12T15:01:56.730Z,41.00
2019-02-12T15:07:01.219Z,41.40
2019-02-12T15:12:07.644Z,41.80
2019-02-12T15:17:13.029Z,41.40
2019-02-12T17:05:41.598Z,56.60
2019-02-12T17:10:45.421Z,62.00
2019-02-12T17:15:49.073Z,61.30
2019-02-12T17:20:52.653Z,60.60
2019-02-12T17:25:56.276Z,62.90
2019-02-12T17:30:59.744Z,60.40
2019-02-12T17:36:03.377Z,62.70
2019-02-12T17:41:09.439Z,61.70
2019-02-12T17:46:13.202Z,62.30
2019-02-12T17:51:16.691Z,63.40
2019-02-12T17:56:24.987Z,63.60
2019-02-12T18:01:26.455Z,63.10
2019-02-12T18:06:30.634Z,61.30
2019-02-12T18:11:35.263Z,61.60
2019-02-12T18:16:39.410Z,63.10
2019-02-12T18:21:44.259Z,62.00
2019-02-12T18:26:51.362Z,62.80
2019-02-12T18:31:56.710Z,62.50
2019-02-12T18:37:01.856Z,62.70
2019-02-12T18:42:07.185Z,63.90
2019-02-12T18:47:12.236Z,64.00
2019-02-12T18:52:17.419Z,63.20
2019-02-12T18:57:22.555Z,62.30
2019-02-12T19:02:28.488Z,63.80
2019-02-12T19:07:36.034Z,64.20
2019-02-12T19:12:41.507Z,64.50
2019-02-12T19:17:50.243Z,64.60
2019-02-12T19:22:55.593Z,64.20
2019-02-12T19:28:01.912Z,64.70
2019-02-12T19:33:07.195Z,63.90
2019-02-12T19:38:12.056Z,64.50
2019-02-12T19:43:17.061Z,63.80
2019-02-12T19:48:22.351Z,64.60
2019-02-12T19:53:27.407Z,65.40
2019-02-12T19:58:38.494Z,65.20
2019-02-12T20:03:43.373Z,65.20
2019-02-12T20:08:48.737Z,65.60
2019-02-12T20:14:03.275Z,65.80
2019-02-12T20:19:08.631Z,67.40
2019-02-12T20:24:13.743Z,68.40
2019-02-12T20:29:19.048Z,68.00
2019-02-12T20:34:24.239Z,68.90
2019-02-12T20:39:29.294Z,67.60
2019-02-12T20:44:34.266Z,67.80
2019-02-12T20:49:39.235Z,68.50
2019-02-12T20:54:44.374Z,68.60
2019-02-12T20:59:49.177Z,69.00
2019-02-12T21:04:54.290Z,69.60
2019-02-12T21:09:59.515Z,70.20
2019-02-12T21:15:05.937Z,69.50
2019-02-12T21:20:11.079Z,69.30
2019-02-12T21:25:37.073Z,69.60
2019-02-12T21:30:43.514Z,69.40
2019-02-12T21:35:46.801Z,69.40
2019-02-12T21:40:50.541Z,70.00
2019-02-12T21:45:54.498Z,69.80
2019-02-12T21:50:58.136Z,69.80
2019-02-12T21:56:01.729Z,70.50
2019-02-12T22:01:06.051Z,70.50
2019-02-12T22:06:09.855Z,71.00
2019-02-12T22:11:13.262Z,71.20
2019-02-12T22:16:16.846Z,71.90
2019-02-12T22:21:21.561Z,72.20
2019-02-12T22:26:25.793Z,72.40
2019-02-12T22:31:29.945Z,72.40
2019-02-12T22:36:33.726Z,72.60
2019-02-12T22:42:01.869Z,73.40
2019-02-12T22:46:44.055Z,73.00
2019-02-12T22:51:48.443Z,74.30
2019-02-12T22:56:52.610Z,73.50
2019-02-12T23:01:56.707Z,73.60
2019-02-12T23:07:00.793Z,73.50
2019-02-12T23:12:06.127Z,73.10
2019-02-12T23:17:11.982Z,73.50
2019-02-12T23:22:16.176Z,74.00
2019-02-12T23:27:21.612Z,75.00
2019-02-12T23:32:27.822Z,75.00
2019-02-12T23:37:32.591Z,75.10
2019-02-12T23:42:37.473Z,75.00
2019-02-12T23:47:43.038Z,75.00
2019-02-12T23:52:48.228Z,74.80
2019-02-12T23:57:53.193Z,75.60
